createdAt,value
2022-08-01T08:11:04.323Z,18.70
2022-08-01T08:16:07.097Z,19.40
2022-08-01T08:21:09.838Z,19.60
2022-08-01T08:26:13.107Z,20.00
2022-08-01T08:31:24.954Z,20.10
2022-08-01T08:36:31.506Z,20.60
2022-08-01T08:41:37.015Z,20.50
2022-08-01T08:46:49.114Z,20.70
2022-08-01T08:51:53.194Z,20.90
2022-08-01T08:56:57.163Z,20.90
2022-08-01T09:02:00.523Z,20.80
2022-08-01T09:07:04.853Z,21.10
2022-08-01T09:12:07.987Z,21.20
2022-08-01T09:17:12.935Z,21.40
2022-08-01T09:22:19.613Z,21.30
2022-08-01T09:27:26.649Z,21.50
2022-08-01T09:32:36.035Z,21.50
2022-08-01T09:37:39.620Z,21.60
2022-08-01T09:42:52.861Z,21.70
2022-08-01T09:47:55.703Z,21.90
2022-08-01T09:52:58.605Z,22.50
2022-08-01T09:58:02.247Z,23.00
2022-08-01T10:03:25.792Z,23.00
2022-08-01T10:08:29.170Z,22.70
2022-08-01T10:13:36.635Z,22.50
2022-08-01T10:18:42.816Z,22.90
2022-08-01T10:23:47.758Z,23.00
2022-08-01T10:28:55.066Z,23.30
2022-08-01T10:34:00.425Z,23.30
2022-08-01T10:39:03.261Z,23.30
2022-08-01T10:44:09.233Z,23.00
2022-08-01T10:49:17.973Z,22.70
2022-08-01T10:54:25.732Z,22.90
2022-08-01T10:59:50.371Z,23.00
2022-08-01T11:05:04.469Z,23.00
2022-08-01T11:10:35.353Z,23.10
2022-08-01T11:15:49.910Z,23.30
2022-08-01T11:21:57.381Z,23.10
2022-08-01T11:26:28.837Z,23.40
2022-08-01T11:31:37.120Z,23.90
2022-08-01T11:36:58.759Z,24.30
2022-08-01T11:42:20.711Z,25.00
2022-08-01T11:47:44.345Z,25.00
2022-08-01T11:52:47.363Z,24.80
2022-08-01T11:57:50.323Z,24.50
2022-08-01T12:03:07.664Z,24.60
2022-08-01T12:08:10.703Z,24.60
2022-08-01T12:13:13.583Z,25.10
2022-08-01T12:18:16.385Z,24.90
2022-08-01T12:23:19.344Z,24.70
2022-08-01T12:28:23.987Z,24.90
2022-08-01T12:33:27.130Z,25.10
2022-08-01T12:38:31.213Z,24.70
2022-08-01T12:43:35.681Z,24.50
2022-08-01T12:48:40.080Z,24.50
2022-08-01T12:53:42.935Z,24.30
2022-08-01T12:58:47.036Z,24.30
2022-08-01T13:04:02.387Z,24.90
2022-08-01T13:09:13.546Z,25.30
2022-08-01T13:14:30.096Z,25.30
2022-08-01T13:19:46.416Z,24.90
2022-08-01T13:24:49.247Z,25.00
2022-08-01T13:29:54.022Z,25.00
2022-08-01T13:35:06.513Z,25.10
2022-08-01T13:40:11.059Z,25.10
2022-08-01T13:45:15.211Z,24.80
2022-08-01T13:50:18.134Z,24.30
2022-08-01T13:55:21.012Z,24.30
2022-08-01T14:00:23.747Z,24.30
2022-08-01T14:05:26.557Z,23.80
2022-08-01T14:10:29.384Z,24.10
2022-08-01T14:15:37.964Z,24.40
2022-08-01T14:20:41.575Z,24.70
2022-08-01T14:26:00.701Z,24.80
2022-08-01T14:31:07.564Z,24.80
2022-08-01T14:36:30.343Z,24.70
2022-08-01T14:41:33.076Z,24.80
2022-08-01T14:46:35.842Z,25.00
2022-08-01T14:51:39.335Z,25.00
2022-08-01T14:56:42.125Z,24.90
2022-08-01T15:01:44.943Z,24.80
2022-08-01T15:06:49.298Z,24.70
2022-08-01T15:11:52.104Z,25.10
2022-08-01T15:16:54.896Z,25.00
2022-08-01T15:21:57.732Z,25.30
2022-08-01T15:27:02.118Z,25.00
2022-08-01T15:32:06.060Z,24.90
2022-08-01T15:37:09.557Z,25.10
2022-08-01T15:42:19.364Z,25.50
2022-08-01T15:47:28.633Z,25.70
2022-08-01T15:52:31.896Z,25.70
2022-08-01T15:57:34.876Z,25.60
2022-08-01T16:02:37.669Z,25.50
2022-08-01T16:07:59.887Z,25.20
2022-08-01T16:13:07.327Z,25.00
2022-08-01T16:18:14.671Z,24.80
2022-08-01T16:23:17.586Z,24.60
2022-08-01T16:28:21.275Z,24.70
2022-08-01T16:33:50.358Z,24.70
2022-08-01T16:38:49.854Z,24.70
2022-08-01T16:43:53.328Z,24.90
2022-08-01T16:48:56.984Z,24.80
2022-08-01T16:54:00.294Z,24.90
2022-08-01T16:59:03.103Z,24.70
2022-08-01T17:04:05.993Z,24.50
2022-08-01T17:09:09.533Z,24.60
2022-08-01T17:14:12.274Z,24.20
2022-08-01T17:19:15.132Z,24.10
2022-08-01T17:24:18.818Z,24.00
2022-08-01T17:29:21.687Z,23.70
2022-08-01T17:34:24.555Z,23.80
2022-08-01T17:39:38.728Z,23.70
2022-08-01T17:44:48.837Z,23.70
2022-08-01T17:49:55.025Z,23.40
2022-08-01T17:54:58.360Z,23.30
2022-08-01T18:00:01.302Z,23.30
2022-08-01T18:05:10.705Z,23.20
2022-08-01T18:10:13.761Z,23.30
2022-08-01T18:15:23.347Z,23.30
2022-08-01T18:20:29.900Z,23.40
2022-08-01T18:25:34.073Z,23.30
2022-08-01T18:30:37.029Z,23.20
2022-08-01T18:35:52.426Z,23.00
2022-08-01T18:40:56.640Z,22.80
2022-08-01T18:46:01.385Z,22.70
2022-08-01T18:51:04.234Z,22.50
2022-08-01T18:56:12.278Z,22.30
2022-08-01T19:01:15.154Z,22.00
2022-08-01T19:06:18.009Z,21.80
2022-08-01T19:11:21.264Z,21.60
2022-08-01T19:16:24.154Z,21.40
2022-08-01T19:21:27.164Z,21.20
2022-08-01T19:26:31.900Z,21.00
2022-08-01T19:31:38.581Z,20.80
2022-08-01T19:36:43.682Z,20.60
2022-08-01T19:41:48.230Z,20.40
2022-08-01T19:46:55.395Z,20.30
2022-08-01T19:52:03.252Z,20.10
